Time;durP1;ratioP1;P1;durP2;ratioP2;P2;SDS_P1;SDS_P2;PMS_P1;PMS_P2;Temp;Humidity;BMP_temperature;BMP_pressure;BME280_temperature;BME280_humidity;BME280_pressure;Samples;Min_cycle;Max_cycle;Signal;HPM_P1;HPM_P2
2023/01/11 00:01:26;;;;;;;9.40;2.10;;;;;;;-10.42;56.99;100868.39;79668;1295;3019092;-62
2023/01/11 00:03:53;;;;;;;18.60;2.40;;;;;;;-10.67;57.39;100866.88;79691;1294;3012980;-62
2023/01/11 00:06:21;;;;;;;7.90;2.60;;;;;;;-10.86;58.07;100869.21;78372;1295;3025861;-64
2023/01/11 00:08:47;;;;;;;8.70;1.10;;;;;;;-11.07;59.06;100876.98;79639;1298;3011635;-64
2023/01/11 00:11:15;;;;;;;4.20;1.40;;;;;;;-10.79;58.75;100883.61;79654;1295;3013470;-63
2023/01/11 00:13:46;;;;;;;15.80;2.00;;;;;;;-10.16;57.19;100891.42;78578;1295;3068515;-64
2023/01/11 00:16:13;;;;;;;11.30;2.10;;;;;;;-10.06;56.50;100885.26;79687;1297;3011785;-66
2023/01/11 00:18:42;;;;;;;13.50;2.70;;;;;;;-10.29;56.82;100888.11;79226;1295;3011588;-64
2023/01/11 00:21:08;;;;;;;10.10;2.60;;;;;;;-10.40;57.20;100889.31;79721;1295;3012871;-63
2023/01/11 00:23:36;;;;;;;5.70;2.10;;;;;;;-10.52;57.81;100882.66;79735;1295;3013076;-64
2023/01/11 00:26:05;;;;;;;4.80;2.00;;;;;;;-10.92;58.75;100875.84;78328;1297;3024681;-64
2023/01/11 00:28:32;;;;;;;18.20;1.30;;;;;;;-10.93;59.38;100869.70;79550;1297;3013164;-63
2023/01/11 00:30:59;;;;;;;6.10;0.70;;;;;;;-10.47;58.84;100864.05;79640;1295;3013471;-63
2023/01/11 00:33:27;;;;;;;5.10;1.60;;;;;;;-10.08;57.36;100859.23;78520;1295;3055920;-63
2023/01/11 00:35:53;;;;;;;9.60;3.00;;;;;;;-10.03;57.32;100854.39;79786;1295;3012867;-62
2023/01/11 00:49:26;;;;;;;6.70;1.40;;;;;;;-10.54;59.32;100872.04;78509;1294;3053994;-64
2023/01/11 00:51:53;;;;;;;2.50;0.90;;;;;;;-9.85;58.00;100872.10;79688;1295;3018416;-67
2023/01/11 00:54:19;;;;;;;6.40;1.30;;;;;;;-9.68;57.20;100878.61;79761;1295;3012827;-66
2023/01/11 00:56:47;;;;;;;6.90;1.90;;;;;;;-9.77;57.08;100888.75;78355;1295;3026546;-64
2023/01/11 00:59:14;;;;;;;13.50;2.30;;;;;;;-9.92;57.37;100901.31;79710;1298;3013594;-63
2023/01/11 01:01:40;;;;;;;7.90;1.80;;;;;;;-10.19;58.15;100899.56;79699;1295;3012070;-63
2023/01/11 01:04:08;;;;;;;3.60;1.70;;;;;;;-10.33;58.48;100887.44;78405;1294;3026154;-65
2023/01/11 01:06:35;;;;;;;4.00;1.80;;;;;;;-10.67;59.87;100890.91;79813;1294;3013125;-65
2023/01/11 01:09:01;;;;;;;7.40;1.30;;;;;;;-10.76;60.46;100891.04;79738;1295;3011482;-65
2023/01/11 01:11:29;;;;;;;9.20;2.30;;;;;;;-10.22;60.00;100896.36;78428;1297;3026526;-64
2023/01/11 01:16:46;;;;;;;8.40;1.90;;;;;;;-9.69;57.69;100888.91;78330;1296;3052264;-63
2023/01/11 01:19:13;;;;;;;2.60;1.50;;;;;;;-9.97;58.24;100882.43;79720;1298;3016144;-64
2023/01/11 01:21:39;;;;;;;3.90;1.40;;;;;;;-10.32;59.03;100887.77;79712;1295;3011941;-64
2023/01/11 01:24:07;;;;;;;7.30;1.90;;;;;;;-10.56;59.96;100880.94;78477;1295;3048167;-65
2023/01/11 01:26:34;;;;;;;7.10;1.60;;;;;;;-10.70;60.57;100892.63;79665;1295;3013048;-62
2023/01/11 01:29:01;;;;;;;2.30;1.00;;;;;;;-10.69;60.64;100885.80;79705;1298;3011655;-63
2023/01/11 01:31:29;;;;;;;9.70;1.90;;;;;;;-10.09;60.32;100880.67;78328;1297;3027009;-64
2023/01/11 01:33:58;;;;;;;7.10;2.40;;;;;;;-9.48;58.03;100883.04;79714;1296;3011698;-64
2023/01/11 01:36:27;;;;;;;4.50;1.80;;;;;;;-9.85;58.26;100880.10;79027;1295;3011568;-64
2023/01/11 01:38:53;;;;;;;4.60;1.50;;;;;;;-10.07;58.96;100891.30;79584;1294;3013101;-63
2023/01/11 01:41:22;;;;;;;6.20;2.10;;;;;;;-10.25;59.36;100892.05;79574;1294;3014028;-64
2023/01/11 01:43:52;;;;;;;8.50;2.60;;;;;;;-10.34;60.08;100896.87;78527;1298;3049138;-62
2023/01/11 01:46:19;;;;;;;11.40;3.20;;;;;;;-10.45;60.45;100890.10;79754;1294;3013290;-63
2023/01/11 01:48:57;;;;;;;2.40;0.50;;;;;;;-10.66;61.33;100887.60;79155;1295;3012312;-64
2023/01/11 01:51:29;;;;;;;3.10;1.30;;;;;;;-10.36;60.96;100885.26;78292;1298;3069465;-63
2023/01/11 01:53:57;;;;;;;6.60;2.40;;;;;;;-9.71;59.55;100877.30;79592;1298;3013326;-65
2023/01/11 01:56:30;;;;;;;5.40;1.90;;;;;;;-9.64;58.51;100879.46;78370;1298;3055869;-64
2023/01/11 01:59:00;;;;;;;5.70;1.90;;;;;;;-9.87;58.79;100893.90;79763;1295;3013468;-62
2023/01/11 02:01:46;;;;;;;5.80;1.60;;;;;;;-10.21;59.87;100893.23;78292;1295;3054000;-62
2023/01/11 02:04:23;;;;;;;5.30;2.20;;;;;;;-10.44;60.69;100892.17;78079;1298;3050441;-62
2023/01/11 02:06:59;;;;;;;3.40;1.60;;;;;;;-10.57;61.11;100899.86;78369;1296;3052170;-64
2023/01/11 02:09:33;;;;;;;6.60;1.40;;;;;;;-10.56;61.35;100903.30;78438;1295;3052833;-62
2023/01/11 13:19:36;;;;;;;4.80;2.90;;;;;;;-2.00;52.15;100785.33;78585;1291;3069306;-61
2023/01/11 13:22:04;;;;;;;6.10;3.00;;;;;;;-2.07;52.48;100774.77;79700;1289;3011737;-63
2023/01/11 13:24:32;;;;;;;5.40;2.80;;;;;;;-2.10;52.32;100772.85;78461;1293;3057739;-64
2023/01/11 13:27:04;;;;;;;7.00;2.10;;;;;;;-2.37;52.94;100770.29;79777;1294;3013183;-63
2023/01/11 13:29:43;;;;;;;12.90;2.90;;;;;;;-2.39;53.38;100778.33;78684;1292;3050205;-64
2023/01/11 13:32:23;;;;;;;6.60;2.50;;;;;;;-2.53;53.87;100777.80;78512;1294;3052377;-63
2023/01/11 13:34:57;;;;;;;9.70;2.50;;;;;;;-2.61;54.24;100775.62;78489;1294;3052118;-64
2023/01/11 13:37:40;;;;;;;13.60;2.90;;;;;;;-2.66;54.40;100779.50;79860;1294;3013057;-64
2023/01/11 13:40:17;;;;;;;6.40;2.40;;;;;;;-2.85;54.84;100777.66;78809;1289;3050584;-64
2023/01/11 13:42:47;;;;;;;9.20;3.10;;;;;;;-2.91;55.13;100783.76;78393;1289;3055698;-64
2023/01/11 13:45:23;;;;;;;8.00;2.80;;;;;;;-2.98;55.07;100781.09;79969;1289;3012735;-64
2023/01/11 13:48:07;;;;;;;8.00;2.90;;;;;;;-3.18;55.80;100776.98;78309;1294;3054033;-62
2023/01/11 13:51:01;;;;;;;7.20;2.60;;;;;;;-3.24;55.91;100777.23;78515;1294;3050049;-64
2023/01/11 13:54:07;;;;;;;5.00;2.20;;;;;;;-3.57;56.90;100778.21;78548;1295;3053063;-62
2023/01/11 13:56:40;;;;;;;4.30;2.30;;;;;;;-3.70;57.03;100784.14;78587;1294;3051922;-61
2023/01/11 13:59:10;;;;;;;;;;;;;;;-3.83;57.52;100789.35;79673;1294;3011494;-63
2023/01/11 14:01:44;;;;;;;2.30;1.40;;;;;;;-3.95;58.07;100789.65;78437;1290;3050783;-64
2023/01/11 14:04:36;;;;;;;3.80;1.70;;;;;;;-4.10;58.20;100795.34;79702;1289;3011579;-66
2023/01/11 14:07:16;;;;;;;7.10;2.00;;;;;;;-4.08;58.45;100791.61;78451;1294;3050080;-62
2023/01/11 14:09:59;;;;;;;4.30;2.40;;;;;;;-4.19;58.77;100790.70;78541;1294;3053167;-63
2023/01/11 14:12:42;;;;;;;;;;;;;;;-4.26;58.67;100792.80;78464;1294;3049966;-62
2023/01/11 14:15:19;;;;;;;7.70;2.60;;;;;;;-4.40;59.20;100792.84;78564;1294;3052650;-62
2023/01/11 14:18:14;;;;;;;5.30;1.70;;;;;;;-4.49;59.64;100786.13;78427;1294;3053055;-61
2023/01/11 14:20:49;;;;;;;6.70;2.10;;;;;;;-4.64;59.70;100789.05;78244;1301;3069131;-64
2023/01/11 14:23:20;;;;;;;3.30;1.70;;;;;;;-4.67;60.18;100794.63;79604;1289;3012104;-62
2023/01/11 14:26:19;;;;;;;13.40;3.10;;;;;;;-4.74;60.70;100796.53;78435;1295;3057012;-63
2023/01/11 14:28:56;;;;;;;5.50;2.00;;;;;;;-4.72;60.39;100798.09;78421;1294;3050429;-63
2023/01/11 14:31:55;;;;;;;7.80;2.70;;;;;;;-4.74;60.58;100797.21;78388;1294;3054215;-64
2023/01/11 14:34:26;;;;;;;4.70;2.30;;;;;;;-4.83;61.19;100795.80;78436;1294;3050145;-61
2023/01/11 14:37:13;;;;;;;8.10;2.20;;;;;;;-4.98;61.73;100798.88;79662;1290;3011893;-66
2023/01/11 14:40:04;;;;;;;9.00;3.00;;;;;;;-4.89;61.12;100801.15;78469;1294;3052811;-62
2023/01/11 14:42:55;;;;;;;8.50;2.50;;;;;;;-5.06;61.96;100789.63;78441;1293;3069004;-63
2023/01/11 14:45:47;;;;;;;6.00;2.00;;;;;;;-5.07;61.92;100793.17;78642;1295;3051111;-65
2023/01/11 14:48:34;;;;;;;5.80;2.50;;;;;;;-5.11;62.03;100798.55;78437;1293;3057209;-64
2023/01/11 14:51:13;;;;;;;6.10;2.70;;;;;;;-5.08;62.35;100801.88;78511;1294;3050000;-64
2023/01/11 14:53:45;;;;;;;10.50;3.60;;;;;;;-5.13;62.49;100797.98;78393;1294;3053856;-63
2023/01/11 14:56:34;;;;;;;7.50;2.20;;;;;;;-5.29;62.85;100795.38;79734;1294;3011582;-64
2023/01/11 14:59:09;;;;;;;12.10;3.00;;;;;;;-5.41;63.60;100795.77;78598;1294;3052413;-62
2023/01/11 15:02:06;;;;;;;4.60;2.20;;;;;;;-5.47;63.89;100801.41;79449;1294;3011670;-63
2023/01/11 15:04:50;;;;;;;5.70;2.80;;;;;;;-5.51;63.63;100807.12;78385;1293;3053923;-63
2023/01/11 15:07:35;;;;;;;5.40;2.50;;;;;;;-5.62;63.82;100808.55;78359;1294;3069610;-64
2023/01/11 15:10:23;;;;;;;5.40;2.10;;;;;;;-5.69;64.36;100803.58;78503;1291;3050732;-64
2023/01/11 15:13:22;;;;;;;3.60;1.40;;;;;;;-5.76;64.64;100804.59;78525;1295;3057088;-65
2023/01/11 15:18:54;;;;;;;12.40;3.90;;;;;;;-5.79;64.86;100812.87;77927;1300;3053109;-65
2023/01/11 15:21:22;;;;;;;7.70;3.20;;;;;;;-5.83;64.61;100813.95;79465;1296;3013760;-68
2023/01/11 15:23:54;;;;;;;10.00;3.30;;;;;;;-5.78;64.69;100812.20;79646;1294;3011957;-65
2023/01/11 15:26:23;;;;;;;7.20;3.10;;;;;;;-5.90;65.43;100813.08;78628;1292;3069791;-67
2023/01/11 15:29:18;;;;;;;8.10;2.80;;;;;;;-5.93;65.55;100818.27;79799;1292;3012878;-65
2023/01/11 15:32:01;;;;;;;12.70;3.20;;;;;;;-6.03;65.54;100814.11;78437;1289;3048393;-64
2023/01/11 15:34:37;;;;;;;;;;;;;;;-6.02;65.81;100817.89;78433;1294;3053182;-64
2023/01/11 15:37:30;;;;;;;3.60;1.90;;;;;;;-6.15;65.53;100822.13;78437;1293;3050845;-64
2023/01/11 15:40:09;;;;;;;5.40;2.20;;;;;;;-6.16;65.91;100828.59;78603;1293;3053270;-65
2023/01/11 15:42:53;;;;;;;6.90;3.20;;;;;;;-6.19;66.17;100822.86;78581;1295;3052869;-64
2023/01/11 15:45:34;;;;;;;5.30;2.90;;;;;;;-6.25;66.77;100832.06;78396;1294;3068356;-64
2023/01/11 15:48:18;;;;;;;7.40;2.20;;;;;;;-6.22;66.63;100829.92;78140;1296;3050352;-64
2023/01/11 15:50:50;;;;;;;8.90;2.50;;;;;;;-6.28;66.55;100833.16;78334;1294;3056883;-63
2023/01/11 15:53:29;;;;;;;8.80;2.70;;;;;;;-6.35;66.94;100827.18;79554;1294;3011345;-64
2023/01/11 15:56:24;;;;;;;4.50;1.90;;;;;;;-6.37;66.49;100836.34;78288;1289;3052117;-64
2023/01/11 15:59:01;;;;;;;8.00;1.90;;;;;;;-6.40;67.20;100833.34;78179;1294;3050773;-64
2023/01/11 16:01:30;;;;;;;5.40;2.80;;;;;;;-6.26;66.52;100838.69;78683;1294;3053305;-63
2023/01/11 16:04:00;;;;;;;5.20;2.40;;;;;;;-6.39;67.18;100835.07;79779;1295;3013151;-64
2023/01/11 16:06:39;;;;;;;6.90;2.80;;;;;;;-6.42;67.12;100836.52;78438;1293;3050689;-67
2023/01/11 16:09:30;;;;;;;7.50;2.70;;;;;;;-6.44;67.15;100832.02;78588;1293;3057234;-65
2023/01/11 16:12:15;;;;;;;3.70;2.10;;;;;;;-6.61;67.33;100831.64;78488;1291;3049334;-62
2023/01/11 16:15:08;;;;;;;12.40;2.70;;;;;;;-6.57;67.02;100831.95;78588;1291;3053631;-65
2023/01/11 16:17:40;;;;;;;5.40;2.60;;;;;;;-6.61;67.80;100827.23;78461;1289;3049189;-64
2023/01/11 16:20:19;;;;;;;5.50;2.40;;;;;;;-6.70;67.76;100823.20;79845;1290;3013435;-65
2023/01/11 16:23:01;;;;;;;4.40;2.40;;;;;;;-6.63;67.97;100831.42;78584;1294;3052468;-66
2023/01/11 16:25:32;;;;;;;7.10;2.10;;;;;;;-6.55;67.27;100833.38;78579;1295;3069105;-63
2023/01/11 16:27:59;;;;;;;3.90;2.60;;;;;;;-6.58;67.78;100826.29;79733;1289;3011994;-63
2023/01/11 16:30:27;;;;;;;5.20;2.40;;;;;;;-6.63;68.29;100824.79;79264;1289;3011549;-64
2023/01/11 16:33:33;;;;;;;7.70;2.60;;;;;;;-6.72;67.99;100821.97;79894;1292;3019285;-62
2023/01/11 16:36:21;;;;;;;8.10;3.90;;;;;;;-6.73;68.74;100829.94;78006;1300;3050610;-63
2023/01/11 16:38:58;;;;;;;8.20;2.40;;;;;;;-6.74;68.58;100826.33;78087;1301;3053959;-64
2023/01/11 16:41:29;;;;;;;4.30;2.50;;;;;;;-6.71;68.59;100840.40;78548;1294;3054597;-63
2023/01/11 16:43:59;;;;;;;5.50;2.80;;;;;;;-6.73;69.11;100840.84;79741;1292;3013964;-65
2023/01/11 16:46:45;;;;;;;3.90;2.10;;;;;;;-6.76;69.36;100843.14;78685;1294;3048632;-64
2023/01/11 16:49:16;;;;;;;5.00;2.50;;;;;;;-6.72;69.04;100842.23;78452;1291;3055776;-64
2023/01/11 16:51:44;;;;;;;4.80;2.80;;;;;;;-6.68;68.86;100851.38;79808;1293;3013259;-63
2023/01/11 16:54:23;;;;;;;5.70;2.50;;;;;;;-6.62;69.01;100849.71;78364;1294;3053188;-63
2023/01/11 16:56:51;;;;;;;5.00;2.60;;;;;;;-6.64;69.07;100847.94;78358;1294;3049780;-64
2023/01/11 16:59:23;;;;;;;4.90;2.00;;;;;;;-6.54;69.50;100845.35;79819;1294;3013685;-64
2023/01/11 17:01:57;;;;;;;9.40;3.00;;;;;;;-6.59;69.15;100845.90;78544;1294;3069269;-65
2023/01/11 17:04:25;;;;;;;4.10;2.50;;;;;;;-6.59;69.52;100852.36;79689;1292;3011787;-65
2023/01/11 17:06:54;;;;;;;4.30;2.30;;;;;;;-6.45;68.86;100847.50;78620;1294;3055855;-66
2023/01/11 17:09:20;;;;;;;7.00;2.80;;;;;;;-6.55;69.97;100848.92;79941;1290;3013090;-65
2023/01/11 17:11:49;;;;;;;5.60;2.50;;;;;;;-6.50;70.01;100856.20;79884;1295;3011580;-68
2023/01/11 17:14:39;;;;;;;8.70;3.20;;;;;;;-6.40;69.56;100854.12;78725;1293;3053014;-65
2023/01/11 17:17:10;;;;;;;8.20;3.80;;;;;;;-6.29;69.04;100852.58;78589;1291;3052722;-64
2023/01/11 17:19:45;;;;;;;10.80;3.60;;;;;;;-6.39;69.87;100846.14;80622;1289;3011667;-66
2023/01/11 17:22:20;;;;;;;5.30;2.80;;;;;;;-6.34;69.95;100840.84;78554;1291;3050545;-65
2023/01/11 17:24:54;;;;;;;5.20;2.50;;;;;;;-6.29;69.77;100836.92;79125;1291;3012718;-64
2023/01/11 17:27:32;;;;;;;8.20;3.10;;;;;;;-6.39;70.15;100838.80;80054;1289;3011347;-66
2023/01/11 17:30:00;;;;;;;4.10;2.50;;;;;;;-6.38;70.09;100836.30;78519;1293;3049196;-64
2023/01/11 17:32:37;;;;;;;4.40;2.50;;;;;;;-6.32;70.16;100835.27;79697;1293;3012874;-66
2023/01/11 17:35:14;;;;;;;7.30;2.40;;;;;;;-6.25;70.45;100830.71;78573;1294;3053186;-63
2023/01/11 17:37:47;;;;;;;7.70;2.80;;;;;;;-6.19;70.08;100836.66;78603;1294;3052311;-66
2023/01/11 17:40:26;;;;;;;4.50;2.50;;;;;;;-6.14;70.23;100835.98;79993;1294;3012973;-65
2023/01/11 17:46:01;;;;;;;8.40;3.70;;;;;;;-5.98;70.41;100833.19;78427;1294;3056413;-67
2023/01/11 17:48:29;;;;;;;12.70;3.70;;;;;;;-5.99;70.78;100832.96;78765;1294;3048998;-63
2023/01/11 17:51:00;;;;;;;10.40;3.30;;;;;;;-6.00;70.47;100831.94;79980;1294;3012924;-64
2023/01/11 17:53:35;;;;;;;7.20;3.50;;;;;;;-5.99;71.22;100831.96;78438;1293;3053718;-65
2023/01/11 17:56:08;;;;;;;7.60;3.10;;;;;;;-5.95;71.04;100833.43;79205;1294;3013224;-64
2023/01/11 17:58:36;;;;;;;7.30;2.60;;;;;;;-5.98;70.60;100826.88;79828;1294;3011600;-64
2023/01/11 18:01:16;;;;;;;8.60;2.50;;;;;;;-5.91;71.06;100836.24;78639;1289;3069915;-63
2023/01/11 18:03:58;;;;;;;9.40;3.20;;;;;;;-5.81;70.88;100843.02;78756;1294;3052267;-66
2023/01/11 18:06:38;;;;;;;7.40;3.00;;;;;;;-5.80;70.46;100845.77;78590;1293;3056017;-64
2023/01/11 18:23:10;;;;;;;5.20;2.60;;;;;;;-5.69;71.43;100835.66;80538;1291;3011752;-64
2023/01/11 18:25:37;;;;;;;5.80;2.50;;;;;;;-5.64;71.40;100827.28;78544;1289;3036950;-65
2023/01/11 18:28:10;;;;;;;5.10;2.70;;;;;;;-5.51;71.40;100825.23;79864;1291;3011639;-67
2023/01/11 18:30:58;;;;;;;5.30;3.00;;;;;;;-5.56;71.41;100821.86;78440;1296;3052540;-65
2023/01/11 18:33:28;;;;;;;6.60;3.00;;;;;;;-5.53;71.37;100814.05;78586;1290;3069286;-67
2023/01/11 18:35:57;;;;;;;4.60;2.80;;;;;;;-5.57;71.53;100814.14;79744;1291;3013495;-67
2023/01/11 18:38:33;;;;;;;6.20;2.90;;;;;;;-5.60;71.88;100806.54;78649;1291;3026458;-68
2023/01/11 18:43:52;;;;;;;9.10;2.90;;;;;;;-5.63;72.18;100800.66;78635;1292;3053012;-69
2023/01/11 18:46:19;;;;;;;8.60;3.00;;;;;;;-5.61;72.85;100802.77;79781;1292;3012973;-66
2023/01/11 18:48:45;;;;;;;11.50;3.00;;;;;;;-5.48;72.45;100801.73;79794;1294;3011614;-72
2023/01/11 18:51:34;;;;;;;5.80;2.30;;;;;;;-5.44;73.01;100796.39;78785;1290;3026988;-65
2023/01/11 18:54:02;;;;;;;12.80;3.50;;;;;;;-5.38;72.63;100793.61;78530;1291;3050517;-70
2023/01/11 18:56:29;;;;;;;6.60;3.50;;;;;;;-5.32;72.41;100795.32;79823;1294;3019124;-68
2023/01/11 18:58:56;;;;;;;8.10;3.20;;;;;;;-5.32;72.34;100790.70;79792;1291;3011627;-67
2023/01/11 19:01:26;;;;;;;7.10;3.20;;;;;;;-5.24;72.30;100790.88;78603;1290;3049227;-64
2023/01/11 19:03:53;;;;;;;8.30;3.50;;;;;;;-5.18;72.47;100786.61;79952;1294;3013289;-66
2023/01/11 19:06:21;;;;;;;9.50;3.40;;;;;;;-5.22;72.89;100787.87;80069;1291;3011577;-66
2023/01/11 19:08:49;;;;;;;6.20;3.10;;;;;;;-5.23;72.75;100786.48;78520;1290;3050448;-66
2023/01/11 19:11:16;;;;;;;3.60;2.50;;;;;;;-5.18;72.73;100783.20;79787;1293;3013296;-67
2023/01/11 19:13:43;;;;;;;4.80;3.30;;;;;;;-5.22;72.72;100781.04;79821;1294;3012064;-65
2023/01/11 19:16:11;;;;;;;11.90;3.50;;;;;;;-5.10;72.76;100776.73;78533;1296;3026448;-66
2023/01/11 19:18:38;;;;;;;9.60;3.30;;;;;;;-5.13;73.23;100777.13;79843;1296;3018672;-67
2023/01/11 19:21:05;;;;;;;6.30;3.00;;;;;;;-5.15;73.23;100778.12;79863;1290;3011768;-66
2023/01/11 19:23:33;;;;;;;4.10;2.70;;;;;;;-5.13;73.24;100767.42;78595;1290;3050346;-65
2023/01/11 19:26:02;;;;;;;5.40;2.80;;;;;;;-5.17;73.62;100764.73;79905;1290;3013378;-65
2023/01/11 19:28:31;;;;;;;8.70;3.70;;;;;;;-5.12;73.62;100758.21;79257;1291;3011427;-68
2023/01/11 19:30:58;;;;;;;10.40;3.70;;;;;;;-5.12;73.50;100770.34;79780;1294;3013651;-66
2023/01/11 19:33:24;;;;;;;5.60;3.00;;;;;;;-5.18;73.77;100772.42;79803;1291;3011821;-65
2023/01/11 19:35:52;;;;;;;7.20;3.30;;;;;;;-5.14;73.93;100774.75;78577;1294;3026496;-66
2023/01/11 19:38:19;;;;;;;5.10;2.80;;;;;;;-5.07;73.76;100779.86;79860;1294;3021344;-64
2023/01/11 19:40:46;;;;;;;8.80;3.30;;;;;;;-5.02;73.19;100778.11;79609;1294;3013480;-63
2023/01/11 19:43:13;;;;;;;9.30;4.40;;;;;;;-4.94;73.44;100783.09;78655;1291;3027101;-65
2023/01/11 19:45:40;;;;;;;7.70;3.00;;;;;;;-4.95;72.96;100773.82;79829;1294;3013503;-65
2023/01/11 19:48:07;;;;;;;8.10;3.10;;;;;;;-5.05;73.29;100773.41;79740;1294;3011483;-64
2023/01/11 19:50:35;;;;;;;9.00;2.70;;;;;;;-5.04;73.59;100774.46;78339;1291;3026123;-65
2023/01/11 19:53:01;;;;;;;9.00;3.50;;;;;;;-4.98;73.29;100765.56;79903;1290;3018636;-64
2023/01/11 19:55:28;;;;;;;6.80;3.20;;;;;;;-4.99;73.61;100761.92;79827;1293;3012087;-65
2023/01/11 19:57:56;;;;;;;7.80;3.60;;;;;;;-4.97;73.56;100765.91;78796;1292;3025493;-64
2023/01/11 20:00:22;;;;;;;7.80;3.90;;;;;;;-4.95;73.22;100765.27;79763;1295;3013378;-68
2023/01/11 20:02:49;;;;;;;10.60;3.40;;;;;;;-4.92;73.44;100759.88;79795;1294;3013033;-63
2023/01/11 20:05:17;;;;;;;6.50;3.50;;;;;;;-4.93;73.30;100760.88;78561;1294;3026411;-64
2023/01/11 20:07:44;;;;;;;8.40;3.20;;;;;;;-4.89;73.40;100761.30;79811;1294;3013817;-64
2023/01/11 20:10:12;;;;;;;8.10;3.30;;;;;;;-4.82;73.04;100758.05;79782;1291;3011826;-65
2023/01/11 20:12:40;;;;;;;5.90;3.00;;;;;;;-4.85;73.02;100762.08;78727;1294;3049333;-66
2023/01/11 20:15:08;;;;;;;9.30;3.00;;;;;;;-4.82;73.34;100758.74;79796;1296;3012995;-62
2023/01/11 20:17:36;;;;;;;9.20;3.40;;;;;;;-4.79;73.19;100757.61;79630;1291;3013276;-62
2023/01/11 20:20:05;;;;;;;5.60;2.90;;;;;;;-4.82;73.25;100746.08;78674;1294;3054164;-66
2023/01/11 20:22:32;;;;;;;8.30;2.80;;;;;;;-4.77;73.32;100756.11;79806;1292;3013441;-67
2023/01/11 20:24:59;;;;;;;5.90;3.40;;;;;;;-4.82;73.50;100753.61;79868;1291;3011639;-66
2023/01/11 20:27:27;;;;;;;8.10;4.00;;;;;;;-4.76;73.53;100757.16;78604;1291;3049947;-67
2023/01/11 20:29:53;;;;;;;11.00;3.70;;;;;;;-4.74;73.40;100753.29;79795;1295;3012934;-64
2023/01/11 20:32:20;;;;;;;9.30;3.90;;;;;;;-4.74;73.37;100751.39;79840;1292;3011790;-66
2023/01/11 20:34:48;;;;;;;6.10;2.90;;;;;;;-4.69;73.31;100754.58;78620;1294;3028060;-63
2023/01/11 20:37:14;;;;;;;9.50;3.80;;;;;;;-4.59;73.05;100749.83;79682;1290;3013188;-65
2023/01/11 20:39:46;;;;;;;13.70;4.40;;;;;;;-4.69;73.37;100750.31;78570;1291;3057630;-66
2023/01/11 20:42:12;;;;;;;9.40;3.60;;;;;;;-4.77;73.20;100747.21;79799;1290;3013815;-63
2023/01/11 20:44:39;;;;;;;6.00;3.60;;;;;;;-4.85;74.19;100739.86;79677;1292;3011855;-64
2023/01/11 20:47:07;;;;;;;10.50;4.00;;;;;;;-4.81;73.71;100740.96;78669;1295;3026041;-64
2023/01/11 20:49:34;;;;;;;7.60;3.10;;;;;;;-4.79;73.86;100734.70;79636;1291;3013492;-62
2023/01/11 20:52:00;;;;;;;7.50;3.50;;;;;;;-4.65;73.28;100731.56;79597;1292;3013198;-64
2023/01/11 20:54:31;;;;;;;8.00;3.20;;;;;;;-4.71;73.33;100726.66;78493;1295;3054994;-64
2023/01/11 20:57:01;;;;;;;9.30;3.70;;;;;;;-4.74;73.44;100731.05;79651;1294;3013454;-63
2023/01/11 20:59:31;;;;;;;10.70;4.00;;;;;;;-4.82;73.99;100733.10;79374;1295;3011804;-62
2023/01/11 21:01:57;;;;;;;6.00;3.10;;;;;;;-4.79;74.22;100733.15;79665;1294;3013540;-63
2023/01/11 21:04:24;;;;;;;9.30;4.20;;;;;;;-4.67;73.73;100737.85;79865;1296;3011622;-65
2023/01/11 21:06:53;;;;;;;9.00;2.70;;;;;;;-4.71;74.07;100733.67;78566;1291;3068819;-63
2023/01/11 21:09:19;;;;;;;8.10;3.20;;;;;;;-4.68;73.93;100728.09;79461;1291;3012965;-66
2023/01/11 21:11:51;;;;;;;18.70;3.40;;;;;;;-4.73;73.99;100729.88;79467;1294;3011619;-66
2023/01/11 21:14:20;;;;;;;10.80;3.30;;;;;;;-4.72;73.77;100728.52;78510;1292;3053126;-65
2023/01/11 21:16:47;;;;;;;19.90;3.40;;;;;;;-4.74;73.82;100724.90;79891;1295;3012704;-66
2023/01/11 21:19:14;;;;;;;6.00;3.10;;;;;;;-4.79;73.93;100722.55;79793;1294;3011588;-64
2023/01/11 21:21:42;;;;;;;11.00;3.50;;;;;;;-4.83;73.84;100717.88;78502;1291;3067752;-65
2023/01/11 21:24:11;;;;;;;7.30;2.20;;;;;;;-4.82;73.74;100717.02;79873;1291;3018758;-63
2023/01/11 21:26:37;;;;;;;3.70;2.20;;;;;;;-4.81;74.14;100715.16;79923;1292;3011533;-64
2023/01/11 21:29:05;;;;;;;9.50;3.00;;;;;;;-4.77;74.20;100723.64;78506;1291;3052855;-65
2023/01/11 21:31:33;;;;;;;11.70;3.30;;;;;;;-4.74;74.02;100723.53;79976;1292;3013370;-70
2023/01/11 21:34:00;;;;;;;11.70;3.60;;;;;;;-4.70;73.75;100715.91;79881;1296;3011427;-66
2023/01/11 21:36:29;;;;;;;10.50;3.60;;;;;;;-4.72;73.03;100718.44;78668;1291;3069162;-65
2023/01/11 21:38:56;;;;;;;9.80;3.30;;;;;;;-4.78;73.59;100712.16;79847;1294;3012792;-65
2023/01/11 21:44:12;;;;;;;5.60;2.60;;;;;;;-4.83;73.49;100716.32;78481;1296;3053768;-62
2023/01/11 21:46:38;;;;;;;9.70;3.10;;;;;;;-4.73;73.16;100712.08;79911;1294;3013141;-63
2023/01/11 21:49:05;;;;;;;10.60;2.70;;;;;;;-4.89;73.58;100713.63;80016;1291;3011857;-64
2023/01/11 21:51:34;;;;;;;6.90;2.50;;;;;;;-4.87;73.79;100706.83;78535;1294;3028674;-66
2023/01/11 21:54:18;;;;;;;15.40;3.20;;;;;;;-4.87;73.98;100708.38;79915;1292;3012900;-66
2023/01/11 21:56:48;;;;;;;10.80;3.60;;;;;;;-4.91;73.63;100703.33;78414;1296;3050182;-63
2023/01/11 21:59:15;;;;;;;7.40;3.70;;;;;;;-4.95;73.84;100703.42;79832;1296;3013045;-60
2023/01/11 22:01:43;;;;;;;7.60;2.70;;;;;;;-4.96;74.14;100701.35;79712;1296;3011683;-63
2023/01/11 22:04:14;;;;;;;7.90;2.40;;;;;;;-4.89;74.09;100697.23;78451;1296;3053149;-62
2023/01/11 22:06:42;;;;;;;10.60;3.00;;;;;;;-4.85;73.79;100693.89;79833;1291;3013424;-62
2023/01/11 22:09:11;;;;;;;6.10;2.30;;;;;;;-4.96;73.89;100693.14;79257;1291;3011656;-63
2023/01/11 22:11:38;;;;;;;15.10;3.40;;;;;;;-5.00;73.81;100695.60;79771;1292;3013304;-64
2023/01/11 22:14:06;;;;;;;11.70;3.70;;;;;;;-4.96;74.02;100698.61;79494;1294;3011690;-64
2023/01/11 22:16:34;;;;;;;13.10;3.80;;;;;;;-4.97;73.95;100698.91;78369;1296;3049772;-60
2023/01/11 22:19:02;;;;;;;9.90;2.60;;;;;;;-5.07;74.24;100698.19;79721;1297;3012864;-62
2023/01/11 22:21:29;;;;;;;7.30;3.20;;;;;;;-4.96;74.40;100699.98;79538;1296;3011650;-63
2023/01/11 22:23:57;;;;;;;9.70;3.00;;;;;;;-4.91;73.32;100700.07;78436;1296;3051633;-63
2023/01/11 22:26:25;;;;;;;9.40;2.90;;;;;;;-5.06;73.85;100691.55;79686;1291;3014444;-63
2023/01/11 22:29:11;;;;;;;5.90;2.50;;;;;;;-5.06;74.04;100690.17;79890;1293;3011640;-64
2023/01/11 22:31:42;;;;;;;8.00;2.70;;;;;;;-4.96;74.05;100684.42;78284;1291;3049814;-62
2023/01/11 22:34:09;;;;;;;11.10;3.60;;;;;;;-5.04;73.69;100676.56;79544;1296;3012685;-61
2023/01/11 22:36:38;;;;;;;18.70;3.60;;;;;;;-5.15;74.28;100677.48;78995;1291;3013118;-63
2023/01/11 22:39:05;;;;;;;11.00;3.00;;;;;;;-5.05;73.88;100682.50;79757;1291;3013308;-63
2023/01/11 22:41:32;;;;;;;7.20;2.60;;;;;;;-5.02;73.75;100685.13;79726;1293;3013032;-62
2023/01/11 22:44:00;;;;;;;5.90;2.00;;;;;;;-5.15;73.81;100679.05;78254;1296;3026561;-64
2023/01/11 22:46:26;;;;;;;7.00;2.90;;;;;;;-5.08;73.80;100683.80;79744;1295;3013004;-64
2023/01/11 22:48:53;;;;;;;6.90;1.90;;;;;;;-5.17;73.89;100683.94;79448;1296;3011910;-65
2023/01/11 22:51:23;;;;;;;6.30;2.00;;;;;;;-5.18;74.38;100686.31;78417;1296;3052271;-63
2023/01/11 22:53:51;;;;;;;8.20;2.40;;;;;;;-5.13;74.47;100685.91;79796;1294;3011834;-65
2023/01/11 22:56:23;;;;;;;9.90;2.80;;;;;;;-5.10;73.87;100683.25;79154;1294;3011668;-67
2023/01/11 22:58:51;;;;;;;7.30;2.90;;;;;;;-5.22;73.74;100687.08;79749;1293;3016019;-65
2023/01/11 23:01:31;;;;;;;8.00;2.50;;;;;;;-5.21;74.32;100682.32;78308;1294;3048600;-68
2023/01/11 23:03:59;;;;;;;10.10;3.00;;;;;;;-5.16;73.72;100682.24;78379;1293;3053244;-63
2023/01/11 23:06:36;;;;;;;9.00;3.00;;;;;;;-5.24;73.73;100690.77;79587;1296;3012980;-64
2023/01/11 23:09:06;;;;;;;7.80;3.10;;;;;;;-5.21;74.23;100692.73;78439;1296;3052958;-66
2023/01/11 23:14:25;;;;;;;9.40;2.50;;;;;;;-5.22;74.00;100686.06;78326;1296;3053273;-64
2023/01/11 23:16:52;;;;;;;11.40;2.60;;;;;;;-5.23;73.92;100680.90;79626;1294;3011678;-63
2023/01/11 23:19:21;;;;;;;9.10;2.60;;;;;;;-5.23;74.26;100692.88;78942;1296;3011594;-63
2023/01/11 23:21:47;;;;;;;12.70;2.70;;;;;;;-5.14;73.96;100694.78;79641;1296;3013357;-65